Latest Weather Observations for Pound Creek

IDV60801

Issued at 8:05 pm EDT Saturday 28 March 2015 (issued every 30 minutes, with the page automatically refreshed every 10 minutes)

About weather observations | Map of weather stations | Latest weather observations for VIC | Other Formats
Station Details ID: 085099 Name: POUND CREEK Lat: -38.63 Lon: 145.81 Height: 3.0 m
Data from the previous 72 hours. | See also: Recent months at Pound Creek
Date/Time
EDT
Temp
°C
App
Temp
°C
Dew
Point
Rel
Hum
%
Delta-T
°C
Wind Press
QNH
hPa
Press
MSL
hPa
Rain
since 9 am
mm
Dir
 
Spd
km/h
Gust
km/h
Spd
kts
Gust
kts
28/08:00pm 13.4 13.6 10.4 82 1.6 CALM 0 0 0 0 1022.2 1022.2 0.0
28/07:30pm 15.1 15.1 11.3 78 2.0 NW 2 4 1 2 1022.2 1022.2 0.0
28/07:00pm 15.3 14.4 11.3 77 2.1 W 7 11 4 6 1022.5 1022.5 0.0
28/06:30pm 15.4 14.7 12.0 80 1.8 WSW 7 13 4 7 1022.4 1022.4 0.0
28/06:00pm 15.7 14.2 11.9 78 2.1 WSW 11 15 6 8 1022.5 1022.5 0.0
28/05:30pm 16.0 14.6 12.2 78 2.1 W 11 17 6 9 1022.6 1022.6 0.0
28/05:00pm 15.8 13.7 12.5 81 1.8 WSW 15 20 8 11 1022.8 1022.8 0.0
28/04:30pm 15.9 15.4 12.6 81 1.8 WNW 7 11 4 6 1022.9 1022.9 0.0
28/04:00pm 15.2 13.1 12.3 83 1.6 WNW 15 19 8 10 1023.0 1023.0 0.0
28/03:30pm 16.2 13.3 12.2 77 2.2 WSW 19 22 10 12 1023.2 1023.2 0.0
28/03:00pm 16.2 13.1 11.6 74 2.5 WSW 19 24 10 13 1023.3 1023.3 0.0
28/02:30pm 16.2 14.2 11.4 73 2.6 WSW 13 19 7 10 1023.6 1023.6 0.0
28/02:00pm 15.4 11.8 11.8 79 1.9 WSW 22 32 12 17 1023.9 1023.9 0.0
28/01:30pm 16.1 13.0 12.1 77 2.2 SW 20 26 11 14 1024.2 1024.2 0.0
28/01:00pm 16.2 13.6 12.0 76 2.3 SW 17 24 9 13 1024.5 1024.5 0.0
28/12:30pm 16.5 14.7 13.2 81 1.8 SW 15 20 8 11 1024.8 1024.8 0.0
28/12:00pm 16.3 14.6 12.3 77 2.2 WSW 13 19 7 10 1024.8 1024.8 0.0
28/11:30am 15.2 13.5 12.3 83 1.6 SW 13 19 7 10 1025.0 1025.0 0.0
28/11:00am 14.5 13.2 12.4 87 1.1 WSW 11 17 6 9 1025.2 1025.2 0.0
28/10:30am 14.6 14.1 12.5 87 1.1 NW 7 13 4 7 1025.3 1025.3 0.0
28/10:00am 14.5 13.8 13.2 92 0.7 NW 9 15 5 8 1025.3 1025.3 0.0
28/09:30am 13.3 12.4 12.5 95 0.4 NNW 9 11 5 6 1025.1 1025.1 0.0
28/09:00am 12.7 11.6 11.9 95 0.4 NNW 9 11 5 6 1025.0 1025.0 1.4
28/08:30am 12.4 11.2 11.6 95 0.4 N 9 11 5 6 1024.7 1024.7 1.4
28/08:00am 12.1 10.8 11.3 95 0.4 N 9 13 5 7 1024.5 1024.5 1.4
28/07:30am 12.2 11.8 11.1 93 0.6 N 4 6 2 3 1024.3 1024.3 1.0
28/07:00am 12.6 11.8 11.0 90 0.8 WNW 6 13 3 7 1024.1 1024.1 1.0
28/06:30am 12.9 12.1 11.0 88 1.0 NW 6 9 3 5 1024.0 1024.0 0.8
28/06:00am 12.6 11.6 10.3 86 1.2 NW 6 7 3 4 1023.6 1023.6 0.8
28/05:30am 13.1 11.6 10.5 84 1.4 W 9 15 5 8 1023.6 1023.6 0.8
28/05:00am 13.6 10.2 10.6 82 1.6 SSW 19 28 10 15 1023.4 1023.4 0.8
28/04:30am 14.2 11.8 11.4 83 1.5 SSW 15 20 8 11 1023.3 1023.3 0.8
28/04:00am 14.3 11.7 10.7 79 1.9 SW 15 19 8 10 1023.3 1023.3 0.8
28/03:30am 14.3 11.0 10.9 80 1.8 SW 19 24 10 13 1023.1 1023.1 0.8
28/03:00am 14.4 10.9 11.0 80 1.8 SW 20 28 11 15 1023.3 1023.3 0.8
28/02:30am 14.6 11.3 11.0 79 1.9 SW 19 26 10 14 1023.3 1023.3 0.8
28/02:00am 14.5 10.9 10.7 78 2.0 SW 20 26 11 14 1023.4 1023.4 0.8
28/01:30am 14.2 10.5 10.2 77 2.1 SW 20 28 11 15 1023.5 1023.5 0.8
28/01:00am 14.1 11.2 10.9 81 1.7 SW 17 24 9 13 1023.6 1023.6 0.8
28/12:30am 14.2 10.9 11.0 81 1.7 SW 19 24 10 13 1023.7 1023.7 0.8
28/12:00am 13.8 10.4 10.6 81 1.7 SW 19 26 10 14 1023.7 1023.7 0.8
 
Date/Time
EDT
Temp
°C
App
Temp
°C
Dew
Point
Rel
Hum
%
Delta-T
°C
Wind Press
QNH
hPa
Press
MSL
hPa
Rain
since 9 am
mm
Dir
 
Spd
km/h
Gust
km/h
Spd
kts
Gust
kts
27/11:30pm 14.2 10.7 10.8 80 1.8 SW 20 30 11 16 1023.8 1023.8 0.8
27/11:00pm 13.9 9.9 10.3 79 1.9 SW 22 30 12 16 1023.6 1023.6 0.8
27/10:30pm 14.2 10.1 10.0 76 2.2 SW 22 30 12 16 1023.7 1023.7 0.8
27/10:00pm 14.2 9.2 9.4 73 2.4 SW 26 32 14 17 1023.6 1023.6 0.8
27/09:30pm 14.5 10.0 9.9 74 2.4 SW 24 32 13 17 1023.6 1023.6 0.8
27/09:00pm 14.8 10.0 10.2 74 2.4 SW 26 35 14 19 1023.5 1023.5 0.8
27/08:30pm 14.3 10.8 10.9 80 1.8 WSW 20 28 11 15 1023.2 1023.2 0.8
27/08:00pm 14.6 10.0 11.2 80 1.8 SW 26 35 14 19 1023.0 1023.0 0.8
27/07:30pm 13.8 8.9 11.3 85 1.3 WSW 28 41 15 22 1022.7 1022.7 0.8
27/07:00pm 14.4 10.1 11.9 85 1.3 WSW 26 35 14 19 1022.5 1022.5 0.2
27/06:30pm 14.1 8.2 11.1 82 1.6 WSW 33 48 18 26 1022.2 1022.2 0.2
27/06:00pm 15.3 9.6 11.1 76 2.2 WSW 32 46 17 25 1021.7 1021.7 0.2
27/05:30pm 15.4 9.2 11.4 77 2.1 WSW 35 43 19 23 1021.4 1021.4 0.2
27/05:00pm 15.4 9.5 11.0 75 2.3 WSW 33 46 18 25 1021.2 1021.2 0.2
27/04:30pm 15.6 10.0 11.4 76 2.3 WSW 32 43 17 23 1021.2 1021.2 0.2
27/04:00pm 15.6 10.1 12.0 79 1.9 WSW 32 46 17 25 1021.0 1021.0 0.2
27/03:31pm 14.9 9.3 12.2 84 1.5 WSW 33 52 18 28 1021.1 1021.1 0.2
27/03:30pm 14.8 8.8 12.1 84 1.5 WSW 35 52 19 28 1021.1 1021.1 0.2
27/03:15pm 15.7 9.3 12.1 79 2.0 WSW 37 56 20 30 1021.1 1021.1 0.2
27/03:00pm 14.7 9.1 12.2 85 1.4 WSW 33 46 18 25 1021.2 1021.2 0.2
27/02:30pm 15.5 9.8 11.9 79 2.0 WSW 33 48 18 26 1021.1 1021.1 0.0
27/02:00pm 14.9 8.0 11.7 81 1.7 WSW 39 50 21 27 1021.1 1021.1 0.0
27/01:30pm 15.0 8.5 11.8 81 1.7 WSW 37 52 20 28 1021.1 1021.1 0.0
27/01:11pm 14.8 8.7 11.6 81 1.7 WSW 35 56 19 30 1021.1 1021.1 0.0
27/01:00pm 15.0 9.0 12.1 83 1.6 WSW 35 52 19 28 1021.2 1021.2 0.0
27/12:34pm 14.6 8.2 12.1 85 1.4 WSW 37 57 20 31 1021.2 1021.2 0.0
27/12:30pm 14.6 7.6 11.4 81 1.7 WSW 39 57 21 31 1021.1 1021.1 0.0
27/12:09pm 15.3 8.5 11.9 80 1.8 WSW 39 59 21 32 1020.6 1020.6 0.0
27/12:00pm 15.3 8.0 11.7 79 1.9 WSW 41 57 22 31 1020.7 1020.7 0.0
27/11:30am 15.6 8.1 12.2 80 1.9 WSW 43 57 23 31 1020.4 1020.4 0.0
27/11:00am 16.1 9.0 12.3 78 2.1 WSW 41 59 22 32 1020.4 1020.4 0.0
27/10:30am 15.3 7.4 11.3 77 2.1 WSW 44 61 24 33 1019.8 1019.8 0.0
27/10:08am 15.3 8.0 11.5 78 2.0 WSW 41 69 22 37 1019.7 1019.7 0.0
27/10:00am 15.1 6.8 11.5 79 1.9 WSW 46 63 25 34 1019.8 1019.8 0.0
27/09:42am 14.9 7.6 11.5 80 1.8 WSW 41 59 22 32 1019.4 1019.4 0.0
27/09:30am 14.7 6.3 10.9 78 2.0 WSW 46 63 25 34 1019.2 1019.2 0.0
27/09:00am 14.7 6.0 11.3 80 1.8 WSW 48 67 26 36 1018.6 1018.6 14.4
27/08:30am 14.9 7.5 11.1 78 2.0 WSW 41 67 22 36 1018.1 1018.1 14.4
27/08:23am 14.7 6.8 11.5 81 1.7 WSW 44 65 24 35 1018.1 1018.1 14.4
27/08:00am 14.5 5.4 11.1 80 1.8 WSW 50 69 27 37 1017.8 1017.8 14.4
27/07:32am 14.0 7.1 11.5 85 1.3 WSW 39 63 21 34 1017.3 1017.3 14.4
27/07:30am 13.9 6.9 11.4 85 1.3 WSW 39 56 21 30 1017.3 1017.3 14.4
27/07:01am 13.6 7.5 11.7 88 1.0 WSW 35 57 19 31 1016.9 1016.9 14.4
27/07:00am 13.6 7.9 11.8 89 1.0 WSW 33 50 18 27 1016.8 1016.8 14.4
27/06:36am 13.6 8.0 11.5 87 1.1 W 32 50 17 27 1016.4 1016.4 14.0
27/06:30am 13.4 7.8 11.6 89 1.0 W 32 44 17 24 1016.3 1016.3 14.0
27/06:04am 12.5 6.1 10.7 89 0.9 W 35 57 19 31 1016.4 1016.4 13.6
27/06:00am 12.8 7.1 11.2 90 0.8 W 32 48 17 26 1016.5 1016.5 13.6
27/05:30am 12.8 7.0 10.9 88 1.0 W 32 48 17 26 1016.4 1016.4 12.0
27/05:20am 13.4 8.2 10.4 82 1.6 W 28 46 15 25 1016.2 1016.2 11.8
27/05:00am 14.2 9.0 10.2 77 2.1 W 28 44 15 24 1016.2 1016.2 11.6
27/04:30am 13.9 8.6 9.9 77 2.1 W 28 43 15 23 1016.2 1016.2 11.6
27/04:00am 14.3 8.2 9.9 75 2.3 WSW 32 43 17 23 1016.0 1016.0 11.6
27/03:30am 13.9 6.9 10.1 78 2.0 WSW 37 52 20 28 1016.0 1016.0 11.6
27/03:00am 13.3 6.5 10.5 83 1.5 WSW 37 57 20 31 1015.9 1015.9 11.6
27/02:58am 14.2 7.5 11.0 81 1.7 WSW 37 57 20 31 1016.0 1016.0 11.2
27/02:30am 13.9 7.5 10.7 81 1.7 WSW 35 48 19 26 1015.6 1015.6 11.2
27/02:00am 12.0 6.0 10.2 89 0.9 W 32 44 17 24 1015.7 1015.7 11.2
27/01:47am 13.7 8.0 11.0 84 1.4 W 32 54 17 29 1015.6 1015.6 10.4
27/01:30am 13.5 8.6 11.2 86 1.2 W 28 39 15 21 1015.2 1015.2 10.4
27/01:00am 13.0 9.7 10.9 87 1.1 W 19 24 10 13 1015.5 1015.5 9.4
27/12:30am 12.9 9.5 11.1 89 0.9 W 20 33 11 18 1015.4 1015.4 9.4
27/12:00am 12.1 8.7 10.7 91 0.7 WNW 19 28 10 15 1015.6 1015.6 9.2
 
Date/Time
EDT
Temp
°C
App
Temp
°C
Dew
Point
Rel
Hum
%
Delta-T
°C
Wind Press
QNH
hPa
Press
MSL
hPa
Rain
since 9 am
mm
Dir
 
Spd
km/h
Gust
km/h
Spd
kts
Gust
kts
26/11:30pm 12.3 7.6 10.7 90 0.8 W 26 35 14 19 1015.5 1015.5 8.8
26/11:00pm 12.2 7.5 10.6 90 0.8 WNW 26 39 14 21 1015.0 1015.0 8.4
26/10:30pm 12.6 10.2 11.3 92 0.7 WNW 15 24 8 13 1015.1 1015.1 7.6
26/10:00pm 12.7 9.3 11.4 92 0.7 WNW 20 33 11 18 1014.9 1014.9 6.0
26/09:30pm 12.7 9.5 11.1 90 0.8 NW 19 35 10 19 1014.5 1014.5 4.4
26/09:00pm 12.8 9.5 11.0 89 0.9 NW 19 37 10 20 1014.5 1014.5 3.6
26/08:30pm 13.4 8.3 10.6 83 1.5 NW 28 41 15 22 1013.7 1013.7 1.6
26/08:00pm 12.5 8.5 10.4 87 1.1 NNW 22 35 12 19 1013.5 1013.5 1.6
26/07:30pm 11.9 7.3 9.5 85 1.2 NNW 24 39 13 21 1013.4 1013.4 1.6
26/07:11pm 11.3 5.6 8.5 83 1.4 NNW 28 46 15 25 1013.5 1013.5 1.6
26/07:00pm 11.3 5.3 8.5 83 1.4 NNW 30 46 16 25 1013.5 1013.5 1.6
26/06:30pm 11.0 5.4 8.8 86 1.1 NNW 28 44 15 24 1013.8 1013.8 1.6
26/06:00pm 11.1 6.4 9.2 88 0.9 NNW 24 37 13 20 1014.0 1014.0 1.2
26/05:30pm 11.7 5.8 7.4 75 2.1 NW 28 54 15 29 1014.5 1014.5 0.4
26/05:00pm 16.0 9.3 3.4 43 5.8 NW 28 52 15 28 1013.4 1013.4 0.0
26/04:30pm 16.9 9.3 2.9 39 6.4 NW 32 52 17 28 1013.4 1013.4 0.0
26/04:06pm 17.1 10.2 2.7 38 6.6 NW 28 50 15 27 1013.6 1013.6 0.0
26/04:00pm 16.9 10.0 2.5 38 6.5 NW 28 44 15 24 1013.9 1013.9 0.0
26/03:50pm 17.5 10.7 3.0 38 6.7 NW 28 48 15 26 1014.0 1014.0 0.0
26/03:30pm 18.3 12.4 3.8 38 6.8 NW 24 43 13 23 1014.2 1014.2 0.0
26/03:03pm 17.6 10.8 3.1 38 6.7 NW 28 46 15 25 1014.5 1014.5 0.0
26/03:00pm 17.4 11.5 3.7 40 6.4 NW 24 46 13 25 1014.7 1014.7 0.0
26/02:32pm 16.3 9.6 3.7 43 5.8 NW 28 46 15 25 1015.0 1015.0 0.0
26/02:30pm 16.4 10.2 4.4 45 5.6 NW 26 44 14 24 1015.1 1015.1 0.0
26/02:06pm 17.4 10.8 4.4 42 6.1 WNW 28 48 15 26 1015.3 1015.3 0.0
26/02:00pm 16.0 9.8 4.1 45 5.5 WNW 26 48 14 26 1015.4 1015.4 0.0
26/01:33pm 16.9 10.5 5.2 46 5.6 WNW 28 48 15 26 1015.5 1015.5 0.0
26/01:30pm 16.0 9.9 5.0 48 5.2 NW 26 44 14 24 1015.6 1015.6 0.0
26/01:18pm 16.2 9.8 5.2 48 5.2 NW 28 46 15 25 1015.6 1015.6 0.0
26/01:00pm 15.4 9.7 4.8 49 5.0 NW 24 39 13 21 1015.8 1015.8 0.0
26/12:30pm 14.8 8.0 5.1 52 4.6 NW 30 50 16 27 1016.2 1016.2 0.0
26/12:23pm 15.7 9.3 5.3 50 4.9 NW 28 50 15 27 1016.1 1016.1 0.0
26/12:00pm 15.6 10.4 7.1 57 4.2 NW 24 43 13 23 1016.4 1016.4 0.0
26/11:30am 14.3 9.0 6.6 60 3.7 NW 24 46 13 25 1016.4 1016.4 0.0
26/11:00am 13.7 8.7 6.3 61 3.5 NW 22 44 12 24 1016.4 1016.4 0.0
26/10:30am 12.7 8.1 6.5 66 3.0 WNW 20 39 11 21 1016.5 1016.5 0.0
26/10:00am 13.5 8.5 7.9 69 2.8 NW 24 37 13 20 1016.3 1016.3 0.0
26/09:30am 12.7 9.1 8.4 75 2.1 NW 17 33 9 18 1016.3 1016.3 0.0
26/09:00am 11.7 8.1 8.4 80 1.6 NW 17 28 9 15 1016.2 1016.2 0.4
26/08:30am 10.6 8.1 8.0 84 1.3 NNW 11 19 6 10 1016.1 1016.1 0.4
26/08:00am 10.2 6.4 7.6 84 1.2 NNW 17 26 9 14 1015.7 1015.7 0.4
26/07:30am 9.5 6.0 7.4 87 1.0 NNW 15 20 8 11 1015.5 1015.5 0.4
26/07:00am 9.6 5.9 7.9 89 0.8 NNW 17 26 9 14 1015.1 1015.1 0.4
26/06:30am 10.2 7.4 8.5 89 0.8 NNW 13 22 7 12 1014.9 1014.9 0.4
26/06:00am 10.1 7.6 8.4 89 0.8 NNW 11 19 6 10 1014.7 1014.7 0.4
26/05:30am 10.3 7.3 7.9 85 1.2 NW 13 20 7 11 1014.8 1014.8 0.4
26/05:00am 11.9 9.2 7.2 73 2.3 NW 11 24 6 13 1014.4 1014.4 0.4
26/04:30am 12.3 10.4 7.6 73 2.3 NW 7 17 4 9 1014.1 1014.1 0.4
26/04:00am 12.4 10.3 8.1 75 2.1 NW 9 15 5 8 1014.0 1014.0 0.4
26/03:30am 12.5 10.7 9.3 81 1.6 WNW 9 19 5 10 1014.1 1014.1 0.4
26/03:00am 12.7 9.7 10.8 88 1.0 W 17 24 9 13 1014.2 1014.2 0.4
26/02:30am 13.1 10.3 10.1 82 1.5 NW 15 28 8 15 1013.9 1013.9 0.2
26/02:00am 12.2 10.8 10.8 91 0.7 N 9 13 5 7 1013.3 1013.3 0.2
26/01:30am 12.1 11.1 11.0 93 0.6 N 7 9 4 5 1013.2 1013.2 0.2
26/01:00am 12.6 12.0 11.7 94 0.5 N 6 6 3 3 1013.4 1013.4 0.2
26/12:30am 12.3 11.4 11.5 95 0.4 NNE 7 11 4 6 1013.6 1013.6 0.2
26/12:00am 12.0 11.1 11.2 95 0.4 NNW 7 9 4 5 1013.9 1013.9 0.2
 
Date/Time
EDT
Temp
°C
App
Temp
°C
Dew
Point
Rel
Hum
%
Delta-T
°C
Wind Press
QNH
hPa
Press
MSL
hPa
Rain
since 9 am
mm
Dir
 
Spd
km/h
Gust
km/h
Spd
kts
Gust
kts
25/11:30pm 12.2 11.5 11.4 95 0.4 N 6 7 3 4 1013.9 1013.9 0.2
25/11:00pm 12.4 11.8 11.6 95 0.4 NNE 6 9 3 5 1013.7 1013.7 0.2
25/10:30pm 12.3 11.4 11.5 95 0.4 N 7 9 4 5 1014.0 1014.0 0.2
25/10:00pm 11.5 10.6 10.6 94 0.5 NNW 6 6 3 3 1014.0 1014.0 0.2
25/09:30pm 11.1 10.4 10.0 93 0.6 N 4 6 2 3 1013.8 1013.8 0.2
25/09:00pm 12.0 11.8 10.6 91 0.7 ESE 2 4 1 2 1013.8 1013.8 0.2
25/08:30pm 12.8 11.9 10.7 87 1.1 SSE 6 6 3 3 1013.7 1013.7 0.2

Other Formats:

Comma delimited format used in spreadsheet applications
http://www.bom.gov.au/fwo/IDV60801/IDV60801.94886.axf

JavaScript Object Notation format (JSON) in row-major order
http://www.bom.gov.au/fwo/IDV60801/IDV60801.94886.json